sensor_id;sensor_type;location;lat;lon;timestamp;P1;durP1;ratioP1;P2;durP2;ratioP2
65706;SDS011;52423;43.512;5.220;2023-11-19T00:01:46;9.13;;;7.28;;
65706;SDS011;52423;43.512;5.220;2023-11-19T00:04:12;8.93;;;6.50;;
65706;SDS011;52423;43.512;5.220;2023-11-19T00:06:38;9.27;;;6.40;;
65706;SDS011;52423;43.512;5.220;2023-11-19T00:09:04;12.48;;;8.20;;
65706;SDS011;52423;43.512;5.220;2023-11-19T00:11:29;10.63;;;6.47;;
65706;SDS011;52423;43.512;5.220;2023-11-19T00:13:55;11.45;;;9.15;;
65706;SDS011;52423;43.512;5.220;2023-11-19T00:16:20;11.45;;;8.23;;
65706;SDS011;52423;43.512;5.220;2023-11-19T00:18:46;8.25;;;5.57;;
65706;SDS011;52423;43.512;5.220;2023-11-19T00:21:11;7.85;;;6.85;;
65706;SDS011;52423;43.512;5.220;2023-11-19T00:23:37;8.73;;;6.13;;
65706;SDS011;52423;43.512;5.220;2023-11-19T00:26:02;7.82;;;7.03;;
65706;SDS011;52423;43.512;5.220;2023-11-19T00:28:30;7.90;;;7.05;;
65706;SDS011;52423;43.512;5.220;2023-11-19T00:30:56;7.20;;;6.60;;
65706;SDS011;52423;43.512;5.220;2023-11-19T00:33:22;9.15;;;7.18;;
65706;SDS011;52423;43.512;5.220;2023-11-19T00:35:47;7.88;;;6.97;;
65706;SDS011;52423;43.512;5.220;2023-11-19T00:38:13;9.07;;;6.00;;
65706;SDS011;52423;43.512;5.220;2023-11-19T00:40:39;9.00;;;5.53;;
65706;SDS011;52423;43.512;5.220;2023-11-19T00:43:05;8.32;;;7.20;;
65706;SDS011;52423;43.512;5.220;2023-11-19T00:45:32;7.82;;;6.43;;
65706;SDS011;52423;43.512;5.220;2023-11-19T00:47:57;10.52;;;6.97;;
65706;SDS011;52423;43.512;5.220;2023-11-19T00:50:24;8.10;;;5.22;;
65706;SDS011;52423;43.512;5.220;2023-11-19T00:52:50;9.23;;;7.40;;
65706;SDS011;52423;43.512;5.220;2023-11-19T00:55:16;7.47;;;6.10;;
65706;SDS011;52423;43.512;5.220;2023-11-19T00:57:42;9.95;;;7.18;;
65706;SDS011;52423;43.512;5.220;2023-11-19T01:00:08;7.60;;;6.50;;
65706;SDS011;52423;43.512;5.220;2023-11-19T01:02:52;7.05;;;6.38;;
65706;SDS011;52423;43.512;5.220;2023-11-19T01:05:18;8.30;;;7.55;;
65706;SDS011;52423;43.512;5.220;2023-11-19T01:07:47;6.93;;;5.32;;
65706;SDS011;52423;43.512;5.220;2023-11-19T01:10:12;8.50;;;6.75;;
65706;SDS011;52423;43.512;5.220;2023-11-19T01:12:38;12.13;;;11.32;;
65706;SDS011;52423;43.512;5.220;2023-11-19T01:15:04;9.43;;;8.65;;
65706;SDS011;52423;43.512;5.220;2023-11-19T01:17:30;9.32;;;8.43;;
65706;SDS011;52423;43.512;5.220;2023-11-19T01:19:56;8.48;;;6.68;;
65706;SDS011;52423;43.512;5.220;2023-11-19T01:22:22;7.32;;;5.78;;
65706;SDS011;52423;43.512;5.220;2023-11-19T01:24:48;6.10;;;4.72;;
65706;SDS011;52423;43.512;5.220;2023-11-19T01:27:13;8.07;;;5.78;;
65706;SDS011;52423;43.512;5.220;2023-11-19T01:29:39;6.72;;;4.90;;
65706;SDS011;52423;43.512;5.220;2023-11-19T01:32:04;8.57;;;6.25;;
65706;SDS011;52423;43.512;5.220;2023-11-19T01:34:30;7.10;;;5.97;;
65706;SDS011;52423;43.512;5.220;2023-11-19T01:36:55;8.63;;;5.35;;
65706;SDS011;52423;43.512;5.220;2023-11-19T01:39:21;7.38;;;6.60;;
65706;SDS011;52423;43.512;5.220;2023-11-19T01:41:46;9.10;;;8.20;;
65706;SDS011;52423;43.512;5.220;2023-11-19T01:44:12;9.30;;;7.72;;
65706;SDS011;52423;43.512;5.220;2023-11-19T01:46:37;10.10;;;6.85;;
65706;SDS011;52423;43.512;5.220;2023-11-19T01:49:04;8.52;;;6.65;;
65706;SDS011;52423;43.512;5.220;2023-11-19T01:51:30;10.68;;;6.10;;
65706;SDS011;52423;43.512;5.220;2023-11-19T01:53:56;9.55;;;8.55;;
65706;SDS011;52423;43.512;5.220;2023-11-19T01:56:23;10.63;;;8.93;;
65706;SDS011;52423;43.512;5.220;2023-11-19T01:58:50;11.40;;;8.85;;
65706;SDS011;52423;43.512;5.220;2023-11-19T02:01:16;13.13;;;11.68;;
65706;SDS011;52423;43.512;5.220;2023-11-19T02:03:42;8.80;;;7.75;;
65706;SDS011;52423;43.512;5.220;2023-11-19T02:06:07;8.35;;;7.50;;
65706;SDS011;52423;43.512;5.220;2023-11-19T02:08:35;8.85;;;6.18;;
65706;SDS011;52423;43.512;5.220;2023-11-19T02:11:01;7.20;;;5.28;;
65706;SDS011;52423;43.512;5.220;2023-11-19T02:13:27;7.82;;;6.90;;
65706;SDS011;52423;43.512;5.220;2023-11-19T02:15:53;7.20;;;6.40;;
65706;SDS011;52423;43.512;5.220;2023-11-19T02:20:49;11.88;;;7.90;;
65706;SDS011;52423;43.512;5.220;2023-11-19T02:23:15;6.63;;;6.00;;
65706;SDS011;52423;43.512;5.220;2023-11-19T02:25:42;8.07;;;7.00;;
65706;SDS011;52423;43.512;5.220;2023-11-19T02:28:12;8.85;;;7.18;;
65706;SDS011;52423;43.512;5.220;2023-11-19T02:30:37;7.50;;;6.70;;
65706;SDS011;52423;43.512;5.220;2023-11-19T02:33:03;8.73;;;7.85;;
65706;SDS011;52423;43.512;5.220;2023-11-19T02:35:31;8.48;;;6.40;;
65706;SDS011;52423;43.512;5.220;2023-11-19T02:37:57;6.78;;;5.38;;
65706;SDS011;52423;43.512;5.220;2023-11-19T02:40:24;9.52;;;8.60;;
65706;SDS011;52423;43.512;5.220;2023-11-19T02:42:50;7.13;;;6.13;;
65706;SDS011;52423;43.512;5.220;2023-11-19T02:45:16;8.52;;;7.53;;
65706;SDS011;52423;43.512;5.220;2023-11-19T02:47:42;6.65;;;5.93;;
65706;SDS011;52423;43.512;5.220;2023-11-19T02:50:09;8.20;;;6.63;;
65706;SDS011;52423;43.512;5.220;2023-11-19T02:52:50;7.68;;;6.47;;
65706;SDS011;52423;43.512;5.220;2023-11-19T02:55:16;11.60;;;6.03;;
65706;SDS011;52423;43.512;5.220;2023-11-19T02:57:43;8.60;;;6.30;;
65706;SDS011;52423;43.512;5.220;2023-11-19T03:00:12;6.70;;;5.80;;
65706;SDS011;52423;43.512;5.220;2023-11-19T03:02:42;7.38;;;5.82;;
65706;SDS011;52423;43.512;5.220;2023-11-19T03:05:19;8.32;;;7.68;;
65706;SDS011;52423;43.512;5.220;2023-11-19T03:07:45;7.57;;;6.00;;
65706;SDS011;52423;43.512;5.220;2023-11-19T03:10:10;7.40;;;6.07;;
65706;SDS011;52423;43.512;5.220;2023-11-19T03:12:43;6.53;;;5.90;;
65706;SDS011;52423;43.512;5.220;2023-11-19T03:15:10;9.40;;;6.20;;
65706;SDS011;52423;43.512;5.220;2023-11-19T03:17:38;7.32;;;6.82;;
65706;SDS011;52423;43.512;5.220;2023-11-19T03:20:07;7.15;;;5.57;;
65706;SDS011;52423;43.512;5.220;2023-11-19T03:22:40;7.22;;;6.53;;
65706;SDS011;52423;43.512;5.220;2023-11-19T03:25:06;6.85;;;5.78;;
65706;SDS011;52423;43.512;5.220;2023-11-19T03:27:34;7.57;;;7.00;;
65706;SDS011;52423;43.512;5.220;2023-11-19T03:30:01;6.78;;;5.93;;
65706;SDS011;52423;43.512;5.220;2023-11-19T03:32:29;6.43;;;5.93;;
65706;SDS011;52423;43.512;5.220;2023-11-19T03:34:55;8.45;;;6.40;;
65706;SDS011;52423;43.512;5.220;2023-11-19T03:37:21;11.15;;;7.97;;
65706;SDS011;52423;43.512;5.220;2023-11-19T03:39:46;5.53;;;4.75;;
65706;SDS011;52423;43.512;5.220;2023-11-19T03:42:11;6.30;;;4.90;;
65706;SDS011;52423;43.512;5.220;2023-11-19T03:44:38;8.13;;;7.05;;
65706;SDS011;52423;43.512;5.220;2023-11-19T03:47:03;8.77;;;6.22;;
65706;SDS011;52423;43.512;5.220;2023-11-19T03:49:29;10.88;;;7.50;;
65706;SDS011;52423;43.512;5.220;2023-11-19T03:51:54;16.35;;;9.63;;
65706;SDS011;52423;43.512;5.220;2023-11-19T03:54:20;10.93;;;8.52;;
65706;SDS011;52423;43.512;5.220;2023-11-19T03:56:46;16.85;;;10.82;;
65706;SDS011;52423;43.512;5.220;2023-11-19T03:59:11;11.43;;;8.52;;
65706;SDS011;52423;43.512;5.220;2023-11-19T04:01:37;8.95;;;4.93;;
65706;SDS011;52423;43.512;5.220;2023-11-19T04:04:02;10.25;;;7.13;;
65706;SDS011;52423;43.512;5.220;2023-11-19T04:06:28;19.13;;;9.20;;
65706;SDS011;52423;43.512;5.220;2023-11-19T04:08:53;27.75;;;13.85;;
65706;SDS011;52423;43.512;5.220;2023-11-19T04:11:19;20.10;;;12.65;;
65706;SDS011;52423;43.512;5.220;2023-11-19T04:13:44;21.55;;;14.20;;
65706;SDS011;52423;43.512;5.220;2023-11-19T04:16:09;16.10;;;11.00;;
65706;SDS011;52423;43.512;5.220;2023-11-19T04:18:35;20.77;;;8.80;;
65706;SDS011;52423;43.512;5.220;2023-11-19T04:21:00;14.80;;;9.65;;
65706;SDS011;52423;43.512;5.220;2023-11-19T04:23:26;14.05;;;7.20;;
65706;SDS011;52423;43.512;5.220;2023-11-19T04:25:51;10.35;;;5.65;;
65706;SDS011;52423;43.512;5.220;2023-11-19T04:28:17;15.88;;;9.23;;
65706;SDS011;52423;43.512;5.220;2023-11-19T04:30:42;19.20;;;11.43;;
65706;SDS011;52423;43.512;5.220;2023-11-19T04:33:09;11.90;;;7.30;;
65706;SDS011;52423;43.512;5.220;2023-11-19T04:35:34;17.67;;;10.48;;
65706;SDS011;52423;43.512;5.220;2023-11-19T04:38:00;28.15;;;13.48;;
65706;SDS011;52423;43.512;5.220;2023-11-19T04:40:25;31.50;;;14.50;;
65706;SDS011;52423;43.512;5.220;2023-11-19T04:42:51;15.82;;;9.57;;
65706;SDS011;52423;43.512;5.220;2023-11-19T04:45:18;20.08;;;9.05;;
65706;SDS011;52423;43.512;5.220;2023-11-19T04:47:43;10.43;;;8.18;;
65706;SDS011;52423;43.512;5.220;2023-11-19T04:50:09;12.32;;;7.70;;
65706;SDS011;52423;43.512;5.220;2023-11-19T04:52:37;14.82;;;6.53;;
65706;SDS011;52423;43.512;5.220;2023-11-19T04:55:05;20.60;;;10.90;;
65706;SDS011;52423;43.512;5.220;2023-11-19T04:57:30;14.85;;;9.35;;
65706;SDS011;52423;43.512;5.220;2023-11-19T04:59:57;10.48;;;6.80;;
65706;SDS011;52423;43.512;5.220;2023-11-19T05:02:23;27.30;;;13.50;;
65706;SDS011;52423;43.512;5.220;2023-11-19T05:04:48;13.32;;;8.40;;
65706;SDS011;52423;43.512;5.220;2023-11-19T05:07:14;10.60;;;6.82;;
65706;SDS011;52423;43.512;5.220;2023-11-19T05:09:39;15.18;;;8.57;;
65706;SDS011;52423;43.512;5.220;2023-11-19T05:12:05;17.95;;;10.63;;
65706;SDS011;52423;43.512;5.220;2023-11-19T05:14:33;12.38;;;7.72;;
65706;SDS011;52423;43.512;5.220;2023-11-19T05:16:59;9.40;;;6.18;;
65706;SDS011;52423;43.512;5.220;2023-11-19T05:19:24;6.55;;;5.43;;
65706;SDS011;52423;43.512;5.220;2023-11-19T05:21:49;5.78;;;5.18;;
65706;SDS011;52423;43.512;5.220;2023-11-19T05:24:17;7.15;;;5.88;;
65706;SDS011;52423;43.512;5.220;2023-11-19T05:26:42;7.13;;;6.53;;
65706;SDS011;52423;43.512;5.220;2023-11-19T05:29:08;6.47;;;3.67;;
65706;SDS011;52423;43.512;5.220;2023-11-19T05:31:33;8.15;;;5.47;;
65706;SDS011;52423;43.512;5.220;2023-11-19T05:33:59;5.25;;;4.47;;
65706;SDS011;52423;43.512;5.220;2023-11-19T05:36:24;6.28;;;5.65;;
65706;SDS011;52423;43.512;5.220;2023-11-19T05:38:49;6.65;;;5.82;;
65706;SDS011;52423;43.512;5.220;2023-11-19T05:41:15;6.50;;;4.78;;
65706;SDS011;52423;43.512;5.220;2023-11-19T05:43:40;7.45;;;5.30;;
65706;SDS011;52423;43.512;5.220;2023-11-19T05:46:06;6.55;;;5.93;;
65706;SDS011;52423;43.512;5.220;2023-11-19T05:48:32;5.40;;;4.93;;
65706;SDS011;52423;43.512;5.220;2023-11-19T05:50:58;8.63;;;7.20;;
65706;SDS011;52423;43.512;5.220;2023-11-19T05:53:23;7.35;;;5.53;;
65706;SDS011;52423;43.512;5.220;2023-11-19T05:55:49;7.68;;;6.60;;
65706;SDS011;52423;43.512;5.220;2023-11-19T05:58:20;6.80;;;6.20;;
65706;SDS011;52423;43.512;5.220;2023-11-19T06:00:48;10.43;;;6.65;;
65706;SDS011;52423;43.512;5.220;2023-11-19T06:03:15;7.32;;;6.63;;
65706;SDS011;52423;43.512;5.220;2023-11-19T06:05:41;6.75;;;6.07;;
65706;SDS011;52423;43.512;5.220;2023-11-19T06:08:09;8.95;;;5.72;;
65706;SDS011;52423;43.512;5.220;2023-11-19T06:10:35;6.68;;;6.00;;
65706;SDS011;52423;43.512;5.220;2023-11-19T06:13:00;9.30;;;5.38;;
65706;SDS011;52423;43.512;5.220;2023-11-19T06:15:29;8.13;;;5.82;;
65706;SDS011;52423;43.512;5.220;2023-11-19T06:17:55;7.80;;;5.35;;
65706;SDS011;52423;43.512;5.220;2023-11-19T06:20:20;5.13;;;4.70;;
65706;SDS011;52423;43.512;5.220;2023-11-19T06:22:46;4.70;;;2.95;;
65706;SDS011;52423;43.512;5.220;2023-11-19T06:25:11;5.68;;;5.18;;
65706;SDS011;52423;43.512;5.220;2023-11-19T06:27:39;5.97;;;4.78;;
65706;SDS011;52423;43.512;5.220;2023-11-19T06:30:05;6.25;;;4.75;;
65706;SDS011;52423;43.512;5.220;2023-11-19T06:32:31;6.25;;;4.28;;
65706;SDS011;52423;43.512;5.220;2023-11-19T06:34:57;7.03;;;4.80;;
65706;SDS011;52423;43.512;5.220;2023-11-19T06:37:23;9.20;;;4.68;;
65706;SDS011;52423;43.512;5.220;2023-11-19T06:39:48;9.38;;;5.85;;
65706;SDS011;52423;43.512;5.220;2023-11-19T06:42:14;7.65;;;6.85;;
65706;SDS011;52423;43.512;5.220;2023-11-19T06:44:39;10.30;;;5.55;;
65706;SDS011;52423;43.512;5.220;2023-11-19T06:47:04;10.85;;;6.57;;
65706;SDS011;52423;43.512;5.220;2023-11-19T06:49:31;24.50;;;14.10;;
65706;SDS011;52423;43.512;5.220;2023-11-19T06:51:56;20.63;;;15.23;;
65706;SDS011;52423;43.512;5.220;2023-11-19T06:54:22;12.73;;;10.10;;
65706;SDS011;52423;43.512;5.220;2023-11-19T06:56:48;10.60;;;9.20;;
65706;SDS011;52423;43.512;5.220;2023-11-19T06:59:14;8.70;;;7.78;;
65706;SDS011;52423;43.512;5.220;2023-11-19T07:01:39;10.65;;;9.15;;
65706;SDS011;52423;43.512;5.220;2023-11-19T07:04:06;11.80;;;10.75;;
65706;SDS011;52423;43.512;5.220;2023-11-19T07:06:35;9.18;;;7.07;;
65706;SDS011;52423;43.512;5.220;2023-11-19T07:09:01;9.45;;;8.48;;
65706;SDS011;52423;43.512;5.220;2023-11-19T07:11:40;8.93;;;8.02;;
65706;SDS011;52423;43.512;5.220;2023-11-19T07:14:07;7.97;;;7.25;;
65706;SDS011;52423;43.512;5.220;2023-11-19T07:16:33;8.30;;;7.07;;
65706;SDS011;52423;43.512;5.220;2023-11-19T07:18:59;12.82;;;11.32;;
65706;SDS011;52423;43.512;5.220;2023-11-19T07:21:28;7.32;;;6.47;;
65706;SDS011;52423;43.512;5.220;2023-11-19T07:23:57;6.78;;;6.20;;
65706;SDS011;52423;43.512;5.220;2023-11-19T07:26:22;4.85;;;3.75;;
65706;SDS011;52423;43.512;5.220;2023-11-19T07:28:48;8.32;;;7.47;;
65706;SDS011;52423;43.512;5.220;2023-11-19T07:31:16;6.68;;;6.00;;
65706;SDS011;52423;43.512;5.220;2023-11-19T07:33:45;8.00;;;7.13;;
65706;SDS011;52423;43.512;5.220;2023-11-19T07:36:12;7.22;;;6.63;;
65706;SDS011;52423;43.512;5.220;2023-11-19T07:38:38;7.20;;;6.50;;
65706;SDS011;52423;43.512;5.220;2023-11-19T07:41:04;7.70;;;6.97;;
65706;SDS011;52423;43.512;5.220;2023-11-19T07:43:31;6.35;;;5.78;;
65706;SDS011;52423;43.512;5.220;2023-11-19T07:45:57;6.32;;;5.82;;
65706;SDS011;52423;43.512;5.220;2023-11-19T07:48:24;5.80;;;5.30;;
65706;SDS011;52423;43.512;5.220;2023-11-19T07:50:51;5.78;;;5.05;;
65706;SDS011;52423;43.512;5.220;2023-11-19T07:53:17;7.78;;;6.43;;
65706;SDS011;52423;43.512;5.220;2023-11-19T07:55:43;7.80;;;7.00;;
65706;SDS011;52423;43.512;5.220;2023-11-19T07:58:09;6.40;;;5.80;;
65706;SDS011;52423;43.512;5.220;2023-11-19T08:00:36;7.13;;;6.30;;
65706;SDS011;52423;43.512;5.220;2023-11-19T08:03:02;10.02;;;9.00;;
65706;SDS011;52423;43.512;5.220;2023-11-19T08:05:28;8.88;;;7.97;;
65706;SDS011;52423;43.512;5.220;2023-11-19T08:07:53;7.10;;;6.00;;
65706;SDS011;52423;43.512;5.220;2023-11-19T08:10:19;9.15;;;7.82;;
65706;SDS011;52423;43.512;5.220;2023-11-19T08:12:45;9.95;;;8.93;;
65706;SDS011;52423;43.512;5.220;2023-11-19T08:15:10;9.18;;;8.27;;
65706;SDS011;52423;43.512;5.220;2023-11-19T08:17:36;9.57;;;8.60;;
65706;SDS011;52423;43.512;5.220;2023-11-19T08:20:02;8.02;;;7.25;;
65706;SDS011;52423;43.512;5.220;2023-11-19T08:22:30;7.45;;;6.68;;
65706;SDS011;52423;43.512;5.220;2023-11-19T08:24:55;6.68;;;5.20;;
65706;SDS011;52423;43.512;5.220;2023-11-19T08:27:21;6.78;;;6.07;;
65706;SDS011;52423;43.512;5.220;2023-11-19T08:29:52;8.02;;;7.07;;
65706;SDS011;52423;43.512;5.220;2023-11-19T08:32:19;7.18;;;6.25;;
65706;SDS011;52423;43.512;5.220;2023-11-19T08:34:44;8.65;;;6.55;;
65706;SDS011;52423;43.512;5.220;2023-11-19T08:37:09;6.65;;;5.60;;
65706;SDS011;52423;43.512;5.220;2023-11-19T08:39:35;7.65;;;5.88;;
65706;SDS011;52423;43.512;5.220;2023-11-19T08:42:02;9.27;;;7.05;;
65706;SDS011;52423;43.512;5.220;2023-11-19T08:44:28;6.47;;;5.88;;
65706;SDS011;52423;43.512;5.220;2023-11-19T08:46:53;7.43;;;6.53;;
65706;SDS011;52423;43.512;5.220;2023-11-19T08:49:19;7.65;;;5.72;;
65706;SDS011;52423;43.512;5.220;2023-11-19T08:51:44;7.43;;;5.45;;
65706;SDS011;52423;43.512;5.220;2023-11-19T08:54:10;8.90;;;6.30;;
65706;SDS011;52423;43.512;5.220;2023-11-19T08:56:36;7.10;;;6.43;;
65706;SDS011;52423;43.512;5.220;2023-11-19T08:59:01;8.02;;;7.30;;
65706;SDS011;52423;43.512;5.220;2023-11-19T09:01:27;8.05;;;7.30;;
65706;SDS011;52423;43.512;5.220;2023-11-19T09:03:53;9.45;;;7.60;;
65706;SDS011;52423;43.512;5.220;2023-11-19T09:06:19;9.82;;;8.90;;
65706;SDS011;52423;43.512;5.220;2023-11-19T09:08:44;8.88;;;7.78;;
65706;SDS011;52423;43.512;5.220;2023-11-19T09:11:09;9.40;;;7.60;;
65706;SDS011;52423;43.512;5.220;2023-11-19T09:13:35;8.90;;;8.10;;
65706;SDS011;52423;43.512;5.220;2023-11-19T09:16:01;10.48;;;9.57;;
65706;SDS011;52423;43.512;5.220;2023-11-19T09:18:29;9.75;;;8.85;;
65706;SDS011;52423;43.512;5.220;2023-11-19T09:20:56;8.50;;;7.70;;
65706;SDS011;52423;43.512;5.220;2023-11-19T09:23:22;10.20;;;9.30;;
65706;SDS011;52423;43.512;5.220;2023-11-19T09:25:47;8.35;;;7.35;;
65706;SDS011;52423;43.512;5.220;2023-11-19T09:28:13;7.63;;;6.90;;
65706;SDS011;52423;43.512;5.220;2023-11-19T09:30:39;9.43;;;7.90;;
65706;SDS011;52423;43.512;5.220;2023-11-19T09:33:04;8.23;;;6.63;;
65706;SDS011;52423;43.512;5.220;2023-11-19T09:35:30;8.20;;;7.50;;
65706;SDS011;52423;43.512;5.220;2023-11-19T09:37:56;9.63;;;8.63;;
65706;SDS011;52423;43.512;5.220;2023-11-19T09:40:21;8.35;;;7.57;;
65706;SDS011;52423;43.512;5.220;2023-11-19T09:42:46;7.55;;;6.72;;
65706;SDS011;52423;43.512;5.220;2023-11-19T09:45:13;7.97;;;6.53;;
65706;SDS011;52423;43.512;5.220;2023-11-19T09:47:43;8.40;;;7.60;;
65706;SDS011;52423;43.512;5.220;2023-11-19T09:50:17;7.65;;;6.95;;
65706;SDS011;52423;43.512;5.220;2023-11-19T09:52:44;7.85;;;7.05;;
65706;SDS011;52423;43.512;5.220;2023-11-19T09:55:10;6.80;;;5.88;;
65706;SDS011;52423;43.512;5.220;2023-11-19T09:57:35;10.00;;;9.13;;
65706;SDS011;52423;43.512;5.220;2023-11-19T10:00:05;8.43;;;7.40;;
65706;SDS011;52423;43.512;5.220;2023-11-19T10:02:32;10.85;;;10.00;;
65706;SDS011;52423;43.512;5.220;2023-11-19T10:05:01;8.57;;;7.72;;
65706;SDS011;52423;43.512;5.220;2023-11-19T10:07:30;7.22;;;6.50;;
65706;SDS011;52423;43.512;5.220;2023-11-19T10:09:58;8.50;;;7.72;;
65706;SDS011;52423;43.512;5.220;2023-11-19T10:12:25;8.80;;;7.95;;
65706;SDS011;52423;43.512;5.220;2023-11-19T10:14:51;10.30;;;9.20;;
65706;SDS011;52423;43.512;5.220;2023-11-19T10:17:21;9.90;;;8.85;;
65706;SDS011;52423;43.512;5.220;2023-11-19T10:19:46;10.48;;;9.48;;
65706;SDS011;52423;43.512;5.220;2023-11-19T10:22:11;12.50;;;11.40;;
65706;SDS011;52423;43.512;5.220;2023-11-19T10:24:39;11.07;;;10.20;;
65706;SDS011;52423;43.512;5.220;2023-11-19T10:27:09;10.57;;;9.73;;
65706;SDS011;52423;43.512;5.220;2023-11-19T10:32:03;8.80;;;7.93;;
65706;SDS011;52423;43.512;5.220;2023-11-19T10:34:29;9.65;;;8.75;;
65706;SDS011;52423;43.512;5.220;2023-11-19T10:36:55;10.30;;;9.32;;
65706;SDS011;52423;43.512;5.220;2023-11-19T10:39:20;10.90;;;8.25;;
65706;SDS011;52423;43.512;5.220;2023-11-19T10:41:46;12.60;;;10.90;;
65706;SDS011;52423;43.512;5.220;2023-11-19T10:44:11;10.30;;;9.32;;
65706;SDS011;52423;43.512;5.220;2023-11-19T10:46:40;11.25;;;10.25;;
65706;SDS011;52423;43.512;5.220;2023-11-19T10:49:07;9.63;;;8.68;;
65706;SDS011;52423;43.512;5.220;2023-11-19T10:51:33;9.02;;;8.18;;
65706;SDS011;52423;43.512;5.220;2023-11-19T10:54:01;8.18;;;7.32;;
65706;SDS011;52423;43.512;5.220;2023-11-19T10:56:31;7.25;;;6.55;;
65706;SDS011;52423;43.512;5.220;2023-11-19T10:58:57;9.52;;;6.95;;
65706;SDS011;52423;43.512;5.220;2023-11-19T11:01:26;7.80;;;7.03;;
65706;SDS011;52423;43.512;5.220;2023-11-19T11:03:58;7.32;;;6.45;;
65706;SDS011;52423;43.512;5.220;2023-11-19T11:06:25;9.07;;;6.95;;
65706;SDS011;52423;43.512;5.220;2023-11-19T11:08:52;8.27;;;6.82;;
65706;SDS011;52423;43.512;5.220;2023-11-19T11:11:19;8.13;;;7.32;;
65706;SDS011;52423;43.512;5.220;2023-11-19T11:13:46;13.52;;;12.23;;
65706;SDS011;52423;43.512;5.220;2023-11-19T11:16:14;9.55;;;8.57;;
65706;SDS011;52423;43.512;5.220;2023-11-19T11:18:40;11.15;;;10.00;;
65706;SDS011;52423;43.512;5.220;2023-11-19T11:21:15;11.80;;;10.75;;
65706;SDS011;52423;43.512;5.220;2023-11-19T11:29:14;10.60;;;9.63;;
65706;SDS011;52423;43.512;5.220;2023-11-19T11:38:07;7.95;;;7.15;;
65706;SDS011;52423;43.512;5.220;2023-11-19T11:40:33;7.50;;;6.50;;
65706;SDS011;52423;43.512;5.220;2023-11-19T11:42:59;11.18;;;10.23;;
65706;SDS011;52423;43.512;5.220;2023-11-19T11:45:40;7.97;;;7.22;;
65706;SDS011;52423;43.512;5.220;2023-11-19T11:48:14;8.63;;;8.00;;
65706;SDS011;52423;43.512;5.220;2023-11-19T11:50:53;8.07;;;6.45;;
65706;SDS011;52423;43.512;5.220;2023-11-19T11:53:22;6.78;;;6.18;;
65706;SDS011;52423;43.512;5.220;2023-11-19T11:58:18;9.55;;;7.90;;
65706;SDS011;52423;43.512;5.220;2023-11-19T12:00:44;6.70;;;5.78;;
65706;SDS011;52423;43.512;5.220;2023-11-19T12:03:11;9.00;;;8.18;;
65706;SDS011;52423;43.512;5.220;2023-11-19T12:05:40;8.98;;;8.07;;
65706;SDS011;52423;43.512;5.220;2023-11-19T12:08:07;6.90;;;6.22;;
65706;SDS011;52423;43.512;5.220;2023-11-19T12:10:36;7.43;;;6.78;;
65706;SDS011;52423;43.512;5.220;2023-11-19T12:13:08;8.00;;;7.30;;
65706;SDS011;52423;43.512;5.220;2023-11-19T12:15:49;7.75;;;7.00;;
65706;SDS011;52423;43.512;5.220;2023-11-19T12:18:26;7.47;;;6.97;;
65706;SDS011;52423;43.512;5.220;2023-11-19T12:20:52;8.55;;;7.78;;
65706;SDS011;52423;43.512;5.220;2023-11-19T12:23:18;8.13;;;7.32;;
65706;SDS011;52423;43.512;5.220;2023-11-19T12:25:43;7.05;;;6.45;;
65706;SDS011;52423;43.512;5.220;2023-11-19T12:28:17;6.70;;;5.53;;
65706;SDS011;52423;43.512;5.220;2023-11-19T12:30:42;7.75;;;7.25;;
65706;SDS011;52423;43.512;5.220;2023-11-19T12:33:09;9.00;;;8.20;;
65706;SDS011;52423;43.512;5.220;2023-11-19T12:35:42;7.82;;;7.25;;
65706;SDS011;52423;43.512;5.220;2023-11-19T12:38:09;8.00;;;7.35;;
65706;SDS011;52423;43.512;5.220;2023-11-19T12:40:46;6.40;;;5.80;;
65706;SDS011;52423;43.512;5.220;2023-11-19T12:43:21;7.15;;;6.35;;
65706;SDS011;52423;43.512;5.220;2023-11-19T12:45:47;9.32;;;8.55;;
65706;SDS011;52423;43.512;5.220;2023-11-19T12:48:13;6.25;;;5.75;;
65706;SDS011;52423;43.512;5.220;2023-11-19T12:53:23;4.93;;;4.45;;
65706;SDS011;52423;43.512;5.220;2023-11-19T12:55:50;5.18;;;4.78;;
65706;SDS011;52423;43.512;5.220;2023-11-19T12:58:31;5.97;;;5.38;;
65706;SDS011;52423;43.512;5.220;2023-11-19T13:01:04;4.78;;;4.38;;
65706;SDS011;52423;43.512;5.220;2023-11-19T13:06:05;6.07;;;5.45;;
65706;SDS011;52423;43.512;5.220;2023-11-19T13:08:57;5.85;;;5.35;;
65706;SDS011;52423;43.512;5.220;2023-11-19T13:11:35;8.20;;;6.47;;
65706;SDS011;52423;43.512;5.220;2023-11-19T13:14:02;5.55;;;5.10;;
65706;SDS011;52423;43.512;5.220;2023-11-19T13:16:35;5.93;;;5.43;;
65706;SDS011;52423;43.512;5.220;2023-11-19T13:19:01;6.72;;;6.13;;
65706;SDS011;52423;43.512;5.220;2023-11-19T13:21:27;5.60;;;5.05;;
65706;SDS011;52423;43.512;5.220;2023-11-19T13:23:54;6.20;;;5.03;;
65706;SDS011;52423;43.512;5.220;2023-11-19T13:26:20;5.00;;;4.55;;
65706;SDS011;52423;43.512;5.220;2023-11-19T13:28:45;6.40;;;5.78;;
65706;SDS011;52423;43.512;5.220;2023-11-19T13:31:11;6.45;;;5.63;;
65706;SDS011;52423;43.512;5.220;2023-11-19T13:33:36;4.38;;;3.97;;
65706;SDS011;52423;43.512;5.220;2023-11-19T13:36:02;7.72;;;7.13;;
65706;SDS011;52423;43.512;5.220;2023-11-19T13:38:34;7.07;;;6.47;;
65706;SDS011;52423;43.512;5.220;2023-11-19T13:41:03;7.53;;;7.03;;
65706;SDS011;52423;43.512;5.220;2023-11-19T13:45:57;5.78;;;4.35;;
65706;SDS011;52423;43.512;5.220;2023-11-19T13:48:23;5.57;;;3.80;;
65706;SDS011;52423;43.512;5.220;2023-11-19T13:50:49;6.20;;;5.68;;
65706;SDS011;52423;43.512;5.220;2023-11-19T13:53:15;5.35;;;4.85;;
65706;SDS011;52423;43.512;5.220;2023-11-19T13:55:41;4.20;;;3.50;;
65706;SDS011;52423;43.512;5.220;2023-11-19T13:58:07;5.25;;;4.85;;
65706;SDS011;52423;43.512;5.220;2023-11-19T14:00:32;5.75;;;4.78;;
65706;SDS011;52423;43.512;5.220;2023-11-19T14:02:58;5.40;;;5.03;;
65706;SDS011;52423;43.512;5.220;2023-11-19T14:05:23;5.63;;;5.22;;
65706;SDS011;52423;43.512;5.220;2023-11-19T14:07:48;5.13;;;4.70;;
65706;SDS011;52423;43.512;5.220;2023-11-19T14:10:15;4.82;;;4.43;;
65706;SDS011;52423;43.512;5.220;2023-11-19T14:12:41;3.25;;;2.40;;
65706;SDS011;52423;43.512;5.220;2023-11-19T14:15:07;4.38;;;4.07;;
65706;SDS011;52423;43.512;5.220;2023-11-19T14:17:40;4.25;;;3.85;;
65706;SDS011;52423;43.512;5.220;2023-11-19T14:20:06;6.45;;;4.60;;
65706;SDS011;52423;43.512;5.220;2023-11-19T14:22:42;5.32;;;4.88;;
65706;SDS011;52423;43.512;5.220;2023-11-19T14:25:09;4.72;;;3.75;;
65706;SDS011;52423;43.512;5.220;2023-11-19T14:27:36;5.60;;;4.78;;
65706;SDS011;52423;43.512;5.220;2023-11-19T14:30:03;4.55;;;4.22;;
65706;SDS011;52423;43.512;5.220;2023-11-19T14:32:30;5.38;;;4.88;;
65706;SDS011;52423;43.512;5.220;2023-11-19T14:34:56;5.10;;;4.68;;
65706;SDS011;52423;43.512;5.220;2023-11-19T14:37:21;5.43;;;4.38;;
65706;SDS011;52423;43.512;5.220;2023-11-19T14:39:46;4.00;;;3.63;;
65706;SDS011;52423;43.512;5.220;2023-11-19T14:42:20;5.25;;;3.28;;
65706;SDS011;52423;43.512;5.220;2023-11-19T14:44:45;4.85;;;3.83;;
65706;SDS011;52423;43.512;5.220;2023-11-19T14:47:11;6.18;;;4.70;;
65706;SDS011;52423;43.512;5.220;2023-11-19T14:49:36;4.18;;;2.97;;
65706;SDS011;52423;43.512;5.220;2023-11-19T14:52:04;3.78;;;3.03;;
65706;SDS011;52423;43.512;5.220;2023-11-19T14:54:30;4.53;;;2.85;;
65706;SDS011;52423;43.512;5.220;2023-11-19T14:56:56;3.47;;;2.70;;
65706;SDS011;52423;43.512;5.220;2023-11-19T14:59:21;3.45;;;2.45;;
65706;SDS011;52423;43.512;5.220;2023-11-19T15:01:46;4.10;;;2.33;;
65706;SDS011;52423;43.512;5.220;2023-11-19T15:04:12;2.80;;;1.80;;
65706;SDS011;52423;43.512;5.220;2023-11-19T15:06:37;3.70;;;2.50;;
65706;SDS011;52423;43.512;5.220;2023-11-19T15:09:03;5.53;;;4.45;;